Aeroporto :
LOGIN :

Iscrizione | Disclaimer

   EN    FR    IT 

 










Sommario :    VFR   VFR Marginale   IFR   IFR Intensivo   IFR Molto Intensivo
Visibilità : 
Base nubi : 
>= 8 km
>= 3000ft
5 / 8 km
1000 / 3000 ft
1500m / 5 km
500 / 1000 ft
800 / 1500m
200 / 500 ft
< 800m
< 200 ft
Simboli :   Temporali  Nebbia  Neve Forte  Precipitazioni Forti  Vento > 20 kt
SIGMETs :   Varie  Temporali  Ghiacco  Turbolenza  Onda orograficha  Ceneri Vulcaniche






- Altitudine del aeroporto : 137 ft
- Codice IATA : THN


ESGT - Trollhattan-Vanersborg

ULTIMO METAR :
  • 072050Z AUTO 20006KT 9999 R15/P2000N R33///// NCD M00/M02 Q0998

METARs OBSOLETI :
  • 072020Z AUTO 18005KT 9999 R15/P2000N R33///// NCD M01/M04 Q0998
  • 071950Z AUTO 18005KT 9999 R15/P2000N R33///// NCD M01/M03 Q0997
  • 071920Z AUTO 20003KT 160V240 9999 R15/P2000N R33///// NCD 02/M03 Q0997
  • 071850Z AUTO 23005KT 9999 R15/P2000N R33///// NCD 02/M03 Q0997
  • 071820Z AUTO 23007KT 9999 R15/P2000N R33///// NCD 02/M03 Q0997

Previsioni scadute.



MetMap, La meteo Aeronautica in un colpo d'occhio ! - Copyright ORBIFLY Dicembre 2007 - Disclaimer

ORBIFLY MET'MAP TEAM :

Programmazione e sviluppo : Alexandra Zaïnal
Concezione : Baudouin d'Aumeries
Aiuto per la programmazione : Marc-Olivier Méhu
Supporto tecnico e logistico : Manuel Goepfert
Aiuto per la traduzione : Arnaldo La Scala

Contatto : metmap@orbifly.com




FONTI E CREDITI :

   NOAA